Airfield :







YOU CAN JOIN US ON...

 
LOGIN :

Register | Disclaimer

   EN    FR    IT 

 









Legend :    VFR   Marginal VFR   IFR   Intensive IFR   Very Intensive IFR
Visi :
Ceiling :
>= 8 km
>= 3000ft
5 to 8 km
1000 to 3000 ft
1500m to 5 km
500 to 1000 ft
800 to 1500m
200 to 500 ft
< 800m
< 200 ft
Symbols :   Thunderstorms  Fog  Heavy snow  Heavy precipitations  Wind > 20 kt






- Airport Elevation : 11 ft


KGHG - Marshfield Municipal George Harlow Field

CURRENT METAR :
  • 061435Z AUTO 23006KT 10SM CLR 00/M06 A3010 RMK AO2

EXPIRED METARs :
  • 061415Z AUTO VRB05KT 10SM CLR 00/M06 A3011 RMK AO2
  • 061355Z AUTO VRB05G12KT 10SM CLR M00/M06 A3010 RMK AO2
  • 061335Z AUTO VRB05G11KT 10SM CLR M00/M07 A3010 RMK AO2
  • 061315Z AUTO VRB03KT 10SM CLR M01/M07 A3010 RMK AO2
  • 061255Z AUTO VRB03KT 10SM CLR M01/M07 A3010 RMK AO2
  • 061235Z AUTO 24004KT 10SM CLR M02/M07 A3009 RMK AO2
  • 061215Z AUTO VRB04KT 10SM CLR M02/M07 A3009 RMK AO2

TAF N/A



MET'MAP, your aeronautical weather chart ! - Copyright ORBIFLY December 2007 - Disclaimer

ORBIFLY MET'MAP TEAM :

Programming & Development : Alexandra Zaïnal
Concept & original design : Baudouin d'Aumeries
Assistance for programming : Marc-Olivier Méhu
Technical & hardware support : Manuel Goepfert

Contact : metmap@orbifly.com




SOURCES & CREDITS :

   NOAA